sensor_id;sensor_type;location;lat;lon;timestamp;temperature;humidity
43338;DHT22;28933;52.492;13.434;2023-06-14T00:00:31;16.30;74.10
43338;DHT22;28933;52.492;13.434;2023-06-14T00:03:17;16.30;74.20
43338;DHT22;28933;52.492;13.434;2023-06-14T00:06:03;16.30;74.50
43338;DHT22;28933;52.492;13.434;2023-06-14T00:08:49;16.30;74.70
43338;DHT22;28933;52.492;13.434;2023-06-14T00:11:35;16.30;74.80
43338;DHT22;28933;52.492;13.434;2023-06-14T00:14:21;16.20;75.00
43338;DHT22;28933;52.492;13.434;2023-06-14T00:17:07;16.20;75.20
43338;DHT22;28933;52.492;13.434;2023-06-14T00:19:54;16.20;75.40
43338;DHT22;28933;52.492;13.434;2023-06-14T00:22:45;16.10;75.90
43338;DHT22;28933;52.492;13.434;2023-06-14T00:25:31;16.10;76.20
43338;DHT22;28933;52.492;13.434;2023-06-14T00:28:17;16.10;76.20
43338;DHT22;28933;52.492;13.434;2023-06-14T00:31:03;16.10;76.70
43338;DHT22;28933;52.492;13.434;2023-06-14T00:33:49;16.10;77.00
43338;DHT22;28933;52.492;13.434;2023-06-14T00:36:35;16.00;77.00
43338;DHT22;28933;52.492;13.434;2023-06-14T00:39:20;16.00;77.30
43338;DHT22;28933;52.492;13.434;2023-06-14T00:42:07;16.00;77.50
43338;DHT22;28933;52.492;13.434;2023-06-14T00:44:53;16.00;77.90
43338;DHT22;28933;52.492;13.434;2023-06-14T00:47:41;16.00;78.10
43338;DHT22;28933;52.492;13.434;2023-06-14T00:50:28;15.90;79.00
43338;DHT22;28933;52.492;13.434;2023-06-14T00:53:16;15.90;79.00
43338;DHT22;28933;52.492;13.434;2023-06-14T00:56:03;15.90;79.30
43338;DHT22;28933;52.492;13.434;2023-06-14T00:58:49;15.90;79.40
43338;DHT22;28933;52.492;13.434;2023-06-14T01:01:36;15.80;79.60
43338;DHT22;28933;52.492;13.434;2023-06-14T01:04:24;15.80;79.70
43338;DHT22;28933;52.492;13.434;2023-06-14T01:07:17;15.80;80.10
43338;DHT22;28933;52.492;13.434;2023-06-14T01:13:20;15.80;80.70
43338;DHT22;28933;52.492;13.434;2023-06-14T01:16:08;15.80;81.20
43338;DHT22;28933;52.492;13.434;2023-06-14T01:18:54;15.80;81.20
43338;DHT22;28933;52.492;13.434;2023-06-14T01:21:42;15.70;81.40
43338;DHT22;28933;52.492;13.434;2023-06-14T01:24:28;15.70;81.70
43338;DHT22;28933;52.492;13.434;2023-06-14T01:27:26;15.70;81.90
43338;DHT22;28933;52.492;13.434;2023-06-14T01:30:14;15.70;82.30
43338;DHT22;28933;52.492;13.434;2023-06-14T01:33:01;15.70;82.40
43338;DHT22;28933;52.492;13.434;2023-06-14T01:35:50;15.70;82.80
43338;DHT22;28933;52.492;13.434;2023-06-14T01:38:36;15.70;83.00
43338;DHT22;28933;52.492;13.434;2023-06-14T01:41:23;15.70;83.10
43338;DHT22;28933;52.492;13.434;2023-06-14T01:44:11;15.70;83.30
43338;DHT22;28933;52.492;13.434;2023-06-14T01:46:58;15.60;83.50
43338;DHT22;28933;52.492;13.434;2023-06-14T01:49:46;15.70;83.80
43338;DHT22;28933;52.492;13.434;2023-06-14T01:52:32;15.60;84.00
43338;DHT22;28933;52.492;13.434;2023-06-14T01:55:18;15.60;84.10
43338;DHT22;28933;52.492;13.434;2023-06-14T01:58:04;15.50;84.20
43338;DHT22;28933;52.492;13.434;2023-06-14T02:00:51;15.50;84.80
43338;DHT22;28933;52.492;13.434;2023-06-14T02:03:37;15.50;84.80
43338;DHT22;28933;52.492;13.434;2023-06-14T02:06:26;15.40;85.10
43338;DHT22;28933;52.492;13.434;2023-06-14T02:09:12;15.50;85.40
43338;DHT22;28933;52.492;13.434;2023-06-14T02:11:58;15.40;85.50
43338;DHT22;28933;52.492;13.434;2023-06-14T02:14:44;15.40;85.90
43338;DHT22;28933;52.492;13.434;2023-06-14T02:17:30;15.40;86.10
43338;DHT22;28933;52.492;13.434;2023-06-14T02:20:16;15.40;86.40
43338;DHT22;28933;52.492;13.434;2023-06-14T02:23:02;15.40;86.80
43338;DHT22;28933;52.492;13.434;2023-06-14T02:25:48;15.40;87.00
43338;DHT22;28933;52.492;13.434;2023-06-14T02:28:34;15.30;87.40
43338;DHT22;28933;52.492;13.434;2023-06-14T02:31:21;15.30;87.70
43338;DHT22;28933;52.492;13.434;2023-06-14T02:34:07;15.20;88.30
43338;DHT22;28933;52.492;13.434;2023-06-14T02:36:56;15.20;88.40
43338;DHT22;28933;52.492;13.434;2023-06-14T02:39:42;15.20;88.60
43338;DHT22;28933;52.492;13.434;2023-06-14T02:42:28;15.20;89.20
43338;DHT22;28933;52.492;13.434;2023-06-14T02:45:17;15.20;89.70
43338;DHT22;28933;52.492;13.434;2023-06-14T02:48:03;15.20;89.80
43338;DHT22;28933;52.492;13.434;2023-06-14T02:50:49;15.10;89.90
43338;DHT22;28933;52.492;13.434;2023-06-14T02:53:36;15.10;90.10
43338;DHT22;28933;52.492;13.434;2023-06-14T02:56:22;15.10;90.10
43338;DHT22;28933;52.492;13.434;2023-06-14T02:59:08;15.10;90.30
43338;DHT22;28933;52.492;13.434;2023-06-14T03:01:54;15.10;90.40
43338;DHT22;28933;52.492;13.434;2023-06-14T03:04:40;15.10;90.50
43338;DHT22;28933;52.492;13.434;2023-06-14T03:07:30;15.10;90.60
43338;DHT22;28933;52.492;13.434;2023-06-14T03:10:16;15.10;90.60
43338;DHT22;28933;52.492;13.434;2023-06-14T03:13:02;15.10;90.80
43338;DHT22;28933;52.492;13.434;2023-06-14T03:15:48;15.10;90.90
43338;DHT22;28933;52.492;13.434;2023-06-14T03:18:36;15.10;90.90
43338;DHT22;28933;52.492;13.434;2023-06-14T03:21:22;15.10;91.00
43338;DHT22;28933;52.492;13.434;2023-06-14T03:24:08;15.10;91.10
43338;DHT22;28933;52.492;13.434;2023-06-14T03:26:55;15.10;91.30
43338;DHT22;28933;52.492;13.434;2023-06-14T03:29:41;15.10;91.30
43338;DHT22;28933;52.492;13.434;2023-06-14T03:32:26;15.20;91.40
43338;DHT22;28933;52.492;13.434;2023-06-14T03:35:12;15.20;91.50
43338;DHT22;28933;52.492;13.434;2023-06-14T03:38:02;15.20;91.60
43338;DHT22;28933;52.492;13.434;2023-06-14T03:40:49;15.20;91.70
43338;DHT22;28933;52.492;13.434;2023-06-14T03:43:35;15.20;91.70
43338;DHT22;28933;52.492;13.434;2023-06-14T03:46:21;15.30;91.80
43338;DHT22;28933;52.492;13.434;2023-06-14T03:49:07;15.30;91.80
43338;DHT22;28933;52.492;13.434;2023-06-14T03:51:53;15.30;91.80
43338;DHT22;28933;52.492;13.434;2023-06-14T03:54:39;15.30;91.90
43338;DHT22;28933;52.492;13.434;2023-06-14T03:57:25;15.30;91.90
43338;DHT22;28933;52.492;13.434;2023-06-14T04:00:12;15.40;92.00
43338;DHT22;28933;52.492;13.434;2023-06-14T04:02:58;15.40;92.00
43338;DHT22;28933;52.492;13.434;2023-06-14T04:05:44;15.50;92.10
43338;DHT22;28933;52.492;13.434;2023-06-14T04:08:30;15.50;92.10
43338;DHT22;28933;52.492;13.434;2023-06-14T04:11:16;15.60;92.10
43338;DHT22;28933;52.492;13.434;2023-06-14T04:14:02;15.70;92.10
43338;DHT22;28933;52.492;13.434;2023-06-14T04:16:49;15.70;92.00
43338;DHT22;28933;52.492;13.434;2023-06-14T04:19:35;15.80;92.00
43338;DHT22;28933;52.492;13.434;2023-06-14T04:22:21;15.80;92.00
43338;DHT22;28933;52.492;13.434;2023-06-14T04:25:07;15.90;92.00
43338;DHT22;28933;52.492;13.434;2023-06-14T04:27:53;15.90;91.90
43338;DHT22;28933;52.492;13.434;2023-06-14T04:30:40;16.00;91.90
43338;DHT22;28933;52.492;13.434;2023-06-14T04:33:26;16.00;91.80
43338;DHT22;28933;52.492;13.434;2023-06-14T04:36:13;16.10;91.80
43338;DHT22;28933;52.492;13.434;2023-06-14T04:38:59;16.10;91.80
43338;DHT22;28933;52.492;13.434;2023-06-14T04:41:45;16.20;91.80
43338;DHT22;28933;52.492;13.434;2023-06-14T04:44:31;16.20;91.80
43338;DHT22;28933;52.492;13.434;2023-06-14T04:47:17;16.30;91.80
43338;DHT22;28933;52.492;13.434;2023-06-14T04:50:04;16.30;91.70
43338;DHT22;28933;52.492;13.434;2023-06-14T04:52:49;16.40;91.70
43338;DHT22;28933;52.492;13.434;2023-06-14T04:55:37;16.50;91.70
43338;DHT22;28933;52.492;13.434;2023-06-14T04:58:23;16.50;91.80
43338;DHT22;28933;52.492;13.434;2023-06-14T05:01:09;16.60;91.60
43338;DHT22;28933;52.492;13.434;2023-06-14T05:03:55;16.70;91.50
43338;DHT22;28933;52.492;13.434;2023-06-14T05:06:42;16.70;91.50
43338;DHT22;28933;52.492;13.434;2023-06-14T05:09:30;16.80;91.30
43338;DHT22;28933;52.492;13.434;2023-06-14T05:12:16;16.80;91.10
43338;DHT22;28933;52.492;13.434;2023-06-14T05:15:04;16.80;91.00
43338;DHT22;28933;52.492;13.434;2023-06-14T05:17:50;16.90;91.00
43338;DHT22;28933;52.492;13.434;2023-06-14T05:20:41;17.00;91.00
43338;DHT22;28933;52.492;13.434;2023-06-14T05:23:30;17.00;90.90
43338;DHT22;28933;52.492;13.434;2023-06-14T05:26:15;17.10;90.80
43338;DHT22;28933;52.492;13.434;2023-06-14T05:29:01;17.10;90.70
43338;DHT22;28933;52.492;13.434;2023-06-14T05:31:48;17.20;90.60
43338;DHT22;28933;52.492;13.434;2023-06-14T05:34:34;17.20;90.50
43338;DHT22;28933;52.492;13.434;2023-06-14T05:37:20;17.30;90.40
43338;DHT22;28933;52.492;13.434;2023-06-14T05:40:07;17.40;90.40
43338;DHT22;28933;52.492;13.434;2023-06-14T05:42:54;17.40;90.40
43338;DHT22;28933;52.492;13.434;2023-06-14T05:45:40;17.50;90.30
43338;DHT22;28933;52.492;13.434;2023-06-14T05:48:26;17.50;90.10
43338;DHT22;28933;52.492;13.434;2023-06-14T05:51:12;17.60;90.00
43338;DHT22;28933;52.492;13.434;2023-06-14T05:53:58;17.60;90.00
43338;DHT22;28933;52.492;13.434;2023-06-14T05:56:44;17.60;89.60
43338;DHT22;28933;52.492;13.434;2023-06-14T05:59:30;17.60;89.50
43338;DHT22;28933;52.492;13.434;2023-06-14T06:02:16;17.60;89.40
43338;DHT22;28933;52.492;13.434;2023-06-14T06:05:02;17.60;89.40
43338;DHT22;28933;52.492;13.434;2023-06-14T06:07:48;17.70;89.40
43338;DHT22;28933;52.492;13.434;2023-06-14T06:10:34;17.60;89.30
43338;DHT22;28933;52.492;13.434;2023-06-14T06:13:20;17.60;89.20
43338;DHT22;28933;52.492;13.434;2023-06-14T06:16:06;17.60;89.30
43338;DHT22;28933;52.492;13.434;2023-06-14T06:18:52;17.50;89.40
43338;DHT22;28933;52.492;13.434;2023-06-14T06:21:37;17.60;89.30
43338;DHT22;28933;52.492;13.434;2023-06-14T06:24:23;17.50;89.30
43338;DHT22;28933;52.492;13.434;2023-06-14T06:27:09;17.50;89.30
43338;DHT22;28933;52.492;13.434;2023-06-14T06:29:56;17.50;89.50
43338;DHT22;28933;52.492;13.434;2023-06-14T06:32:42;17.50;89.50
43338;DHT22;28933;52.492;13.434;2023-06-14T06:35:28;17.50;89.50
43338;DHT22;28933;52.492;13.434;2023-06-14T06:38:14;17.50;89.50
43338;DHT22;28933;52.492;13.434;2023-06-14T06:41:00;17.50;89.50
43338;DHT22;28933;52.492;13.434;2023-06-14T06:43:46;17.60;89.60
43338;DHT22;28933;52.492;13.434;2023-06-14T06:46:33;17.60;89.60
43338;DHT22;28933;52.492;13.434;2023-06-14T06:49:19;17.70;89.60
43338;DHT22;28933;52.492;13.434;2023-06-14T06:52:06;17.70;89.70
43338;DHT22;28933;52.492;13.434;2023-06-14T06:54:52;17.80;89.70
43338;DHT22;28933;52.492;13.434;2023-06-14T06:57:40;17.80;89.50
43338;DHT22;28933;52.492;13.434;2023-06-14T07:00:26;17.90;89.50
43338;DHT22;28933;52.492;13.434;2023-06-14T07:03:12;18.00;89.30
43338;DHT22;28933;52.492;13.434;2023-06-14T07:05:58;18.00;89.20
43338;DHT22;28933;52.492;13.434;2023-06-14T07:08:45;18.10;89.00
43338;DHT22;28933;52.492;13.434;2023-06-14T07:11:32;18.10;89.10
43338;DHT22;28933;52.492;13.434;2023-06-14T07:14:18;18.20;89.20
43338;DHT22;28933;52.492;13.434;2023-06-14T07:17:04;18.30;89.00
43338;DHT22;28933;52.492;13.434;2023-06-14T07:19:50;18.40;88.60
43338;DHT22;28933;52.492;13.434;2023-06-14T07:22:40;18.40;87.80
43338;DHT22;28933;52.492;13.434;2023-06-14T07:25:26;18.40;87.60
43338;DHT22;28933;52.492;13.434;2023-06-14T07:28:12;18.40;87.50
43338;DHT22;28933;52.492;13.434;2023-06-14T07:30:58;18.50;87.70
43338;DHT22;28933;52.492;13.434;2023-06-14T07:33:45;18.70;87.60
43338;DHT22;28933;52.492;13.434;2023-06-14T07:36:30;18.90;87.30
43338;DHT22;28933;52.492;13.434;2023-06-14T07:39:16;19.00;87.10
43338;DHT22;28933;52.492;13.434;2023-06-14T07:42:03;19.20;86.80
43338;DHT22;28933;52.492;13.434;2023-06-14T07:44:48;19.30;86.30
43338;DHT22;28933;52.492;13.434;2023-06-14T07:47:36;19.40;85.90
43338;DHT22;28933;52.492;13.434;2023-06-14T07:50:22;19.40;85.40
43338;DHT22;28933;52.492;13.434;2023-06-14T07:53:08;19.50;85.20
43338;DHT22;28933;52.492;13.434;2023-06-14T07:55:54;19.60;85.20
43338;DHT22;28933;52.492;13.434;2023-06-14T07:58:40;19.60;84.90
43338;DHT22;28933;52.492;13.434;2023-06-14T08:01:26;19.70;84.60
43338;DHT22;28933;52.492;13.434;2023-06-14T08:04:14;19.80;84.70
43338;DHT22;28933;52.492;13.434;2023-06-14T08:07:00;19.90;84.10
43338;DHT22;28933;52.492;13.434;2023-06-14T08:09:46;19.90;83.30
43338;DHT22;28933;52.492;13.434;2023-06-14T08:12:33;19.90;83.20
43338;DHT22;28933;52.492;13.434;2023-06-14T08:15:19;19.90;83.00
43338;DHT22;28933;52.492;13.434;2023-06-14T08:18:06;19.90;82.90
43338;DHT22;28933;52.492;13.434;2023-06-14T08:20:51;20.00;82.80
43338;DHT22;28933;52.492;13.434;2023-06-14T08:23:37;20.00;82.40
43338;DHT22;28933;52.492;13.434;2023-06-14T08:26:23;20.10;82.20
43338;DHT22;28933;52.492;13.434;2023-06-14T08:29:09;20.20;81.70
43338;DHT22;28933;52.492;13.434;2023-06-14T08:31:55;20.20;81.30
43338;DHT22;28933;52.492;13.434;2023-06-14T08:34:41;20.30;81.50
43338;DHT22;28933;52.492;13.434;2023-06-14T08:37:27;20.40;81.60
43338;DHT22;28933;52.492;13.434;2023-06-14T08:40:22;20.40;81.10
43338;DHT22;28933;52.492;13.434;2023-06-14T08:43:08;20.40;80.30
43338;DHT22;28933;52.492;13.434;2023-06-14T08:46:02;20.30;80.50
43338;DHT22;28933;52.492;13.434;2023-06-14T08:48:49;20.40;80.20
43338;DHT22;28933;52.492;13.434;2023-06-14T08:51:36;20.40;80.10
43338;DHT22;28933;52.492;13.434;2023-06-14T08:54:23;20.50;79.50
43338;DHT22;28933;52.492;13.434;2023-06-14T08:57:12;20.60;79.30
43338;DHT22;28933;52.492;13.434;2023-06-14T09:00:02;20.60;78.80
43338;DHT22;28933;52.492;13.434;2023-06-14T09:02:55;20.80;78.80
43338;DHT22;28933;52.492;13.434;2023-06-14T09:05:43;21.00;78.70
43338;DHT22;28933;52.492;13.434;2023-06-14T09:08:30;21.10;78.20
43338;DHT22;28933;52.492;13.434;2023-06-14T09:11:18;21.30;77.60
43338;DHT22;28933;52.492;13.434;2023-06-14T09:14:04;21.50;77.40
43338;DHT22;28933;52.492;13.434;2023-06-14T09:16:54;21.70;76.90
43338;DHT22;28933;52.492;13.434;2023-06-14T09:19:40;21.70;76.00
43338;DHT22;28933;52.492;13.434;2023-06-14T09:22:29;21.80;76.20
43338;DHT22;28933;52.492;13.434;2023-06-14T09:25:16;21.80;75.10
43338;DHT22;28933;52.492;13.434;2023-06-14T09:28:06;21.80;74.50
43338;DHT22;28933;52.492;13.434;2023-06-14T09:30:53;21.90;74.70
43338;DHT22;28933;52.492;13.434;2023-06-14T09:33:48;22.00;74.30
43338;DHT22;28933;52.492;13.434;2023-06-14T09:36:34;21.90;74.10
43338;DHT22;28933;52.492;13.434;2023-06-14T09:39:21;22.00;73.90
43338;DHT22;28933;52.492;13.434;2023-06-14T09:42:17;22.10;73.70
43338;DHT22;28933;52.492;13.434;2023-06-14T09:45:06;22.20;73.10
43338;DHT22;28933;52.492;13.434;2023-06-14T09:47:53;22.20;72.50
43338;DHT22;28933;52.492;13.434;2023-06-14T09:50:39;22.10;72.50
43338;DHT22;28933;52.492;13.434;2023-06-14T09:53:26;22.20;72.80
43338;DHT22;28933;52.492;13.434;2023-06-14T09:56:22;22.30;72.80
43338;DHT22;28933;52.492;13.434;2023-06-14T09:59:09;22.40;72.60
43338;DHT22;28933;52.492;13.434;2023-06-14T10:01:57;22.40;72.40
43338;DHT22;28933;52.492;13.434;2023-06-14T10:04:49;22.50;72.00
43338;DHT22;28933;52.492;13.434;2023-06-14T10:07:42;22.50;72.00
43338;DHT22;28933;52.492;13.434;2023-06-14T10:10:30;22.50;71.50
43338;DHT22;28933;52.492;13.434;2023-06-14T10:13:16;22.40;71.60
43338;DHT22;28933;52.492;13.434;2023-06-14T10:16:12;22.40;71.70
43338;DHT22;28933;52.492;13.434;2023-06-14T10:19:25;22.50;71.40
43338;DHT22;28933;52.492;13.434;2023-06-14T10:22:18;22.50;70.90
43338;DHT22;28933;52.492;13.434;2023-06-14T10:25:12;22.50;70.80
43338;DHT22;28933;52.492;13.434;2023-06-14T10:28:14;22.60;70.90
43338;DHT22;28933;52.492;13.434;2023-06-14T10:31:09;22.60;70.40
43338;DHT22;28933;52.492;13.434;2023-06-14T10:33:59;22.50;70.40
43338;DHT22;28933;52.492;13.434;2023-06-14T10:36:45;22.50;69.90
43338;DHT22;28933;52.492;13.434;2023-06-14T10:39:38;22.50;69.70
43338;DHT22;28933;52.492;13.434;2023-06-14T10:42:32;22.30;69.50
43338;DHT22;28933;52.492;13.434;2023-06-14T10:45:18;22.20;70.00
43338;DHT22;28933;52.492;13.434;2023-06-14T10:48:04;22.10;70.40
43338;DHT22;28933;52.492;13.434;2023-06-14T10:51:00;22.10;70.50
43338;DHT22;28933;52.492;13.434;2023-06-14T10:53:49;22.20;70.60
43338;DHT22;28933;52.492;13.434;2023-06-14T10:56:35;22.30;70.30
43338;DHT22;28933;52.492;13.434;2023-06-14T10:59:21;22.40;70.50
43338;DHT22;28933;52.492;13.434;2023-06-14T11:02:16;22.50;70.30
43338;DHT22;28933;52.492;13.434;2023-06-14T11:05:08;22.60;70.30
43338;DHT22;28933;52.492;13.434;2023-06-14T11:08:11;22.70;70.20
43338;DHT22;28933;52.492;13.434;2023-06-14T11:11:06;22.80;70.10
43338;DHT22;28933;52.492;13.434;2023-06-14T11:13:52;22.80;68.90
43338;DHT22;28933;52.492;13.434;2023-06-14T11:16:38;22.80;68.60
43338;DHT22;28933;52.492;13.434;2023-06-14T11:19:24;22.90;68.00
43338;DHT22;28933;52.492;13.434;2023-06-14T11:22:12;22.90;68.20
43338;DHT22;28933;52.492;13.434;2023-06-14T11:25:01;23.00;68.30
43338;DHT22;28933;52.492;13.434;2023-06-14T11:27:49;23.00;67.70
43338;DHT22;28933;52.492;13.434;2023-06-14T11:30:36;23.10;67.50
43338;DHT22;28933;52.492;13.434;2023-06-14T11:33:22;23.10;67.40
43338;DHT22;28933;52.492;13.434;2023-06-14T11:36:08;23.20;67.30
43338;DHT22;28933;52.492;13.434;2023-06-14T11:39:01;23.20;66.90
43338;DHT22;28933;52.492;13.434;2023-06-14T11:41:48;23.30;66.90
43338;DHT22;28933;52.492;13.434;2023-06-14T11:44:34;23.40;66.60
43338;DHT22;28933;52.492;13.434;2023-06-14T11:47:21;23.40;66.70
43338;DHT22;28933;52.492;13.434;2023-06-14T11:50:08;23.50;67.30
43338;DHT22;28933;52.492;13.434;2023-06-14T11:52:56;23.60;66.40
43338;DHT22;28933;52.492;13.434;2023-06-14T11:55:42;23.70;65.60
43338;DHT22;28933;52.492;13.434;2023-06-14T11:58:30;23.70;66.10
43338;DHT22;28933;52.492;13.434;2023-06-14T12:01:18;23.70;65.70
43338;DHT22;28933;52.492;13.434;2023-06-14T12:04:04;23.70;65.00
43338;DHT22;28933;52.492;13.434;2023-06-14T12:06:51;23.70;64.70
43338;DHT22;28933;52.492;13.434;2023-06-14T12:09:39;23.60;63.90
43338;DHT22;28933;52.492;13.434;2023-06-14T12:12:25;23.60;64.60
43338;DHT22;28933;52.492;13.434;2023-06-14T12:15:11;23.70;64.50
43338;DHT22;28933;52.492;13.434;2023-06-14T12:17:58;23.80;63.60
43338;DHT22;28933;52.492;13.434;2023-06-14T12:20:49;23.80;63.60
43338;DHT22;28933;52.492;13.434;2023-06-14T12:23:43;23.80;63.60
43338;DHT22;28933;52.492;13.434;2023-06-14T12:26:29;23.80;63.00
43338;DHT22;28933;52.492;13.434;2023-06-14T12:29:15;23.80;63.10
43338;DHT22;28933;52.492;13.434;2023-06-14T12:32:01;23.80;63.00
43338;DHT22;28933;52.492;13.434;2023-06-14T12:34:47;23.90;62.80
43338;DHT22;28933;52.492;13.434;2023-06-14T12:37:35;23.90;63.00
43338;DHT22;28933;52.492;13.434;2023-06-14T12:40:21;24.00;62.10
43338;DHT22;28933;52.492;13.434;2023-06-14T12:43:07;24.10;61.50
43338;DHT22;28933;52.492;13.434;2023-06-14T12:45:53;24.20;61.00
43338;DHT22;28933;52.492;13.434;2023-06-14T12:48:39;24.30;60.80
43338;DHT22;28933;52.492;13.434;2023-06-14T12:51:25;24.40;60.30
43338;DHT22;28933;52.492;13.434;2023-06-14T12:54:11;24.50;59.60
43338;DHT22;28933;52.492;13.434;2023-06-14T12:56:57;24.70;59.20
43338;DHT22;28933;52.492;13.434;2023-06-14T12:59:43;24.90;58.50
43338;DHT22;28933;52.492;13.434;2023-06-14T13:02:29;25.00;58.10
43338;DHT22;28933;52.492;13.434;2023-06-14T13:05:15;25.10;57.10
43338;DHT22;28933;52.492;13.434;2023-06-14T13:08:01;25.30;56.50
43338;DHT22;28933;52.492;13.434;2023-06-14T13:10:47;25.40;56.40
43338;DHT22;28933;52.492;13.434;2023-06-14T13:13:33;25.50;56.00
43338;DHT22;28933;52.492;13.434;2023-06-14T13:16:19;25.60;55.80
43338;DHT22;28933;52.492;13.434;2023-06-14T13:19:05;25.50;54.40
43338;DHT22;28933;52.492;13.434;2023-06-14T13:21:51;25.50;54.40
43338;DHT22;28933;52.492;13.434;2023-06-14T13:24:37;25.50;54.40
43338;DHT22;28933;52.492;13.434;2023-06-14T13:27:23;25.40;54.20
43338;DHT22;28933;52.492;13.434;2023-06-14T13:30:10;25.50;54.30
43338;DHT22;28933;52.492;13.434;2023-06-14T13:32:56;25.60;54.20
43338;DHT22;28933;52.492;13.434;2023-06-14T13:35:43;25.70;54.60
43338;DHT22;28933;52.492;13.434;2023-06-14T13:38:28;25.60;53.90
43338;DHT22;28933;52.492;13.434;2023-06-14T13:41:15;25.60;54.10
43338;DHT22;28933;52.492;13.434;2023-06-14T13:44:01;25.70;53.70
43338;DHT22;28933;52.492;13.434;2023-06-14T13:46:49;25.80;54.40
43338;DHT22;28933;52.492;13.434;2023-06-14T13:49:35;25.90;54.00
43338;DHT22;28933;52.492;13.434;2023-06-14T13:52:22;26.00;54.40
43338;DHT22;28933;52.492;13.434;2023-06-14T13:55:08;26.20;54.80
43338;DHT22;28933;52.492;13.434;2023-06-14T13:57:55;26.40;53.70
43338;DHT22;28933;52.492;13.434;2023-06-14T14:00:42;26.40;53.60
43338;DHT22;28933;52.492;13.434;2023-06-14T14:03:28;26.50;53.60
43338;DHT22;28933;52.492;13.434;2023-06-14T14:06:14;26.60;53.90
43338;DHT22;28933;52.492;13.434;2023-06-14T14:09:00;26.70;53.50
43338;DHT22;28933;52.492;13.434;2023-06-14T14:11:46;26.70;53.10
43338;DHT22;28933;52.492;13.434;2023-06-14T14:14:34;26.70;52.70
43338;DHT22;28933;52.492;13.434;2023-06-14T14:17:21;26.60;52.50
43338;DHT22;28933;52.492;13.434;2023-06-14T14:20:07;26.50;52.90
43338;DHT22;28933;52.492;13.434;2023-06-14T14:22:53;26.50;53.30
43338;DHT22;28933;52.492;13.434;2023-06-14T14:25:39;26.50;53.30
43338;DHT22;28933;52.492;13.434;2023-06-14T14:28:25;26.40;52.40
43338;DHT22;28933;52.492;13.434;2023-06-14T14:31:11;26.50;52.20
43338;DHT22;28933;52.492;13.434;2023-06-14T14:33:57;26.70;52.70
43338;DHT22;28933;52.492;13.434;2023-06-14T14:36:43;27.00;52.80
43338;DHT22;28933;52.492;13.434;2023-06-14T14:39:29;27.10;52.00
43338;DHT22;28933;52.492;13.434;2023-06-14T14:42:16;27.20;52.60
43338;DHT22;28933;52.492;13.434;2023-06-14T14:45:02;27.20;50.60
43338;DHT22;28933;52.492;13.434;2023-06-14T14:47:49;27.10;49.90
43338;DHT22;28933;52.492;13.434;2023-06-14T14:50:34;26.90;50.10
43338;DHT22;28933;52.492;13.434;2023-06-14T14:53:20;26.60;50.00
43338;DHT22;28933;52.492;13.434;2023-06-14T14:56:06;26.60;50.10
43338;DHT22;28933;52.492;13.434;2023-06-14T14:58:52;26.50;50.30
43338;DHT22;28933;52.492;13.434;2023-06-14T15:01:38;26.30;49.80
43338;DHT22;28933;52.492;13.434;2023-06-14T15:04:24;26.10;49.90
43338;DHT22;28933;52.492;13.434;2023-06-14T15:07:10;25.90;50.50
43338;DHT22;28933;52.492;13.434;2023-06-14T15:09:57;25.50;50.70
43338;DHT22;28933;52.492;13.434;2023-06-14T15:12:43;25.20;51.10
43338;DHT22;28933;52.492;13.434;2023-06-14T15:15:28;24.90;51.50
43338;DHT22;28933;52.492;13.434;2023-06-14T15:18:14;24.80;51.60
43338;DHT22;28933;52.492;13.434;2023-06-14T15:21:02;24.50;51.90
43338;DHT22;28933;52.492;13.434;2023-06-14T15:23:48;24.30;52.30
43338;DHT22;28933;52.492;13.434;2023-06-14T15:26:35;24.20;52.40
43338;DHT22;28933;52.492;13.434;2023-06-14T15:29:21;24.10;52.70
43338;DHT22;28933;52.492;13.434;2023-06-14T15:32:07;24.00;52.90
43338;DHT22;28933;52.492;13.434;2023-06-14T15:34:55;23.90;53.00
43338;DHT22;28933;52.492;13.434;2023-06-14T15:37:40;23.90;53.20
43338;DHT22;28933;52.492;13.434;2023-06-14T15:40:26;23.80;53.40
43338;DHT22;28933;52.492;13.434;2023-06-14T15:43:13;23.80;53.50
43338;DHT22;28933;52.492;13.434;2023-06-14T15:45:59;23.80;53.70
43338;DHT22;28933;52.492;13.434;2023-06-14T15:48:46;23.80;53.90
43338;DHT22;28933;52.492;13.434;2023-06-14T15:51:32;23.90;53.90
43338;DHT22;28933;52.492;13.434;2023-06-14T15:54:18;23.90;54.00
43338;DHT22;28933;52.492;13.434;2023-06-14T15:57:04;24.00;54.10
43338;DHT22;28933;52.492;13.434;2023-06-14T15:59:50;24.00;54.10
43338;DHT22;28933;52.492;13.434;2023-06-14T16:02:36;24.00;54.20
43338;DHT22;28933;52.492;13.434;2023-06-14T16:05:22;23.80;54.00
43338;DHT22;28933;52.492;13.434;2023-06-14T16:08:08;23.90;54.10
43338;DHT22;28933;52.492;13.434;2023-06-14T16:10:54;23.80;54.10
43338;DHT22;28933;52.492;13.434;2023-06-14T16:13:42;23.70;54.30
43338;DHT22;28933;52.492;13.434;2023-06-14T16:16:28;23.70;54.60
43338;DHT22;28933;52.492;13.434;2023-06-14T16:19:14;23.60;54.80
43338;DHT22;28933;52.492;13.434;2023-06-14T16:22:00;23.50;54.80
43338;DHT22;28933;52.492;13.434;2023-06-14T16:24:45;23.50;54.70
43338;DHT22;28933;52.492;13.434;2023-06-14T16:27:31;23.40;54.80
43338;DHT22;28933;52.492;13.434;2023-06-14T16:30:17;23.40;54.70
43338;DHT22;28933;52.492;13.434;2023-06-14T16:33:03;23.30;54.80
43338;DHT22;28933;52.492;13.434;2023-06-14T16:35:49;23.30;54.90
43338;DHT22;28933;52.492;13.434;2023-06-14T16:38:35;23.20;54.90
43338;DHT22;28933;52.492;13.434;2023-06-14T16:41:21;23.20;55.00
43338;DHT22;28933;52.492;13.434;2023-06-14T16:44:07;23.20;55.10
43338;DHT22;28933;52.492;13.434;2023-06-14T16:46:54;23.20;55.10
43338;DHT22;28933;52.492;13.434;2023-06-14T16:49:40;23.10;55.10
43338;DHT22;28933;52.492;13.434;2023-06-14T16:52:26;23.10;55.30
43338;DHT22;28933;52.492;13.434;2023-06-14T16:55:12;23.10;55.40
43338;DHT22;28933;52.492;13.434;2023-06-14T16:57:58;23.10;55.60
43338;DHT22;28933;52.492;13.434;2023-06-14T17:00:44;23.10;55.80
43338;DHT22;28933;52.492;13.434;2023-06-14T17:03:30;23.00;55.80
43338;DHT22;28933;52.492;13.434;2023-06-14T17:06:18;22.90;55.90
43338;DHT22;28933;52.492;13.434;2023-06-14T17:09:06;22.80;56.10
43338;DHT22;28933;52.492;13.434;2023-06-14T17:11:53;22.80;56.10
43338;DHT22;28933;52.492;13.434;2023-06-14T17:14:39;22.70;56.20
43338;DHT22;28933;52.492;13.434;2023-06-14T17:17:26;22.70;56.30
43338;DHT22;28933;52.492;13.434;2023-06-14T17:20:12;22.70;56.40